KPDX/PDX METAR and TAF weather

Enter ICAO airport designator
Station Type Date Time Source
KPDX METAR 2019/11/18 11:31 UTC NOAA

KPDX 181131Z 27004KT 1/4SM R10R/P6000FT BR BKN002 OVC004 12/11 A3010 RMK AO2 SFC VIS 3 T01170106


Station Type Date Time Source
KPDX Decoded METAR 2019/11/18 11:31 UTC NOAA

PORTLAND INTERNATIONAL AIRPORT, OR, United States (KPDX) 45-35N 122-36W 7M
Nov 18, 2019 - 06:31 AM EST / 2019.11.18 1131 UTC
Wind: from the W (270 degrees) at 5 MPH (4 KT):0
Visibility: 1/4 mile(s):0
Sky conditions: overcast
Weather: mist
Temperature: 53.1 F (11.7 C)
Dew Point: 51.1 F (10.6 C)
Relative Humidity: 92%
Pressure (altimeter): 30.1 in. Hg (1019 hPa)
ob: KPDX 181131Z 27004KT 1/4SM R10R/P6000FT BR BKN002 OVC004 12/11 A3010 RMK AO2 SFC VIS 3 T01170106
cycle: 11

Station Type Date Time Source
KPDX TAF 2019/11/18 12:36 UTC NOAA

TAF KPDX 181135Z 1812/1912 VRB05KT 3SM BR BKN003 OVC012
TEMPO 1812/1816 1SM BR SCT003 OVC012
FM181600 VRB03KT 6SM -SHRA BR BKN012 OVC100
FM181900 12007KT P6SM -SHRA SCT015 BKN060 OVC100
FM190200 15011KT 6SM RA BKN025 OVC050
FM191000 20008KT P6SM BKN025 OVC100

Example: see airport list